Bremerton National Airport


Codes: KPWT/PWT
Name: Bremerton National Airport
City: Bremerton
Country: United States
Elevation: 444 ft.

Photos at Bremerton National Airport


   Photos courtesy of SpottingLog. You can add your own sightings and photos by signing up for a free trial today.



No photos found.

Weather at Bremerton National Airport


Time (UTC)DescriptionTempratureWindCloud coverageVisibilityPressureHumidity
16-Jun-2024 00:00Light Rain13°C7 mph, SW67%10000m1018hPa68%
16-Jun-2024 03:00Light Rain13°C4 mph, SW67%10000m1018hPa70%
16-Jun-2024 06:00Broken Clouds9°C2 mph, SW54%10000m1019hPa88%
16-Jun-2024 09:00Broken Clouds5°C2 mph, SW63%10000m1020hPa99%
16-Jun-2024 12:00Broken Clouds5°C2 mph, S68%10000m1020hPa99%
16-Jun-2024 15:00Overcast Clouds7°C2 mph, SW96%10000m1019hPa90%
16-Jun-2024 18:00Broken Clouds15°C2 mph, SW81%10000m1017hPa47%
16-Jun-2024 21:00Light Rain15°C7 mph, NE84%10000m1016hPa49%
17-Jun-2024 00:00Light Rain11°C4 mph, NW93%10000m1016hPa79%
17-Jun-2024 03:00Light Rain12°C2 mph, N100%10000m1015hPa76%
17-Jun-2024 06:00Overcast Clouds8°C0 mph, SW100%10000m1016hPa88%
17-Jun-2024 09:00Overcast Clouds8°C2 mph, SW96%10000m1017hPa91%
17-Jun-2024 12:00Broken Clouds6°C2 mph, SW82%10000m1017hPa96%
17-Jun-2024 15:00Broken Clouds10°C4 mph, SW57%10000m1018hPa80%
17-Jun-2024 18:00Broken Clouds16°C4 mph, S62%10000m1018hPa54%
17-Jun-2024 21:00Overcast Clouds15°C7 mph, SW89%10000m1018hPa56%
18-Jun-2024 00:00Overcast Clouds17°C4 mph, S95%10000m1017hPa54%
18-Jun-2024 03:00Overcast Clouds14°C4 mph, SW100%10000m1017hPa67%
18-Jun-2024 06:00Overcast Clouds11°C2 mph, SW98%10000m1018hPa79%
18-Jun-2024 09:00Overcast Clouds9°C0 mph, SE98%10000m1018hPa91%
18-Jun-2024 12:00Broken Clouds6°C0 mph, NW52%10000m1018hPa98%
18-Jun-2024 15:00Clear Sky12°C2 mph, NE9%10000m1018hPa76%
18-Jun-2024 18:00Few Clouds18°C4 mph, NE20%10000m1016hPa49%
18-Jun-2024 21:00Few Clouds22°C4 mph, NE11%10000m1014hPa37%
19-Jun-2024 00:00Clear Sky22°C9 mph, NE5%10000m1013hPa37%
19-Jun-2024 03:00Clear Sky17°C7 mph, NE0%10000m1013hPa54%
19-Jun-2024 06:00Few Clouds10°C4 mph, NE17%10000m1014hPa82%
19-Jun-2024 09:00Scattered Clouds8°C4 mph, NE37%10000m1013hPa94%
19-Jun-2024 12:00Scattered Clouds8°C4 mph, NE36%10000m1013hPa96%
19-Jun-2024 15:00Broken Clouds14°C7 mph, NE58%10000m1013hPa63%
19-Jun-2024 18:00Broken Clouds22°C7 mph, NE75%10000m1012hPa43%
19-Jun-2024 21:00Overcast Clouds26°C7 mph, NE100%10000m1011hPa32%
20-Jun-2024 00:00Overcast Clouds26°C7 mph, NE100%10000m1009hPa29%
20-Jun-2024 03:00Overcast Clouds19°C7 mph, NE100%10000m1011hPa59%
20-Jun-2024 06:00Overcast Clouds15°C4 mph, NE92%10000m1012hPa66%
20-Jun-2024 09:00Clear Sky13°C2 mph, NE9%10000m1011hPa71%
20-Jun-2024 12:00Clear Sky11°C0 mph, NE10%10000m1012hPa80%
20-Jun-2024 15:00Scattered Clouds17°C2 mph, E29%10000m1013hPa58%
20-Jun-2024 18:00Scattered Clouds25°C2 mph, NE39%10000m1012hPa35%
20-Jun-2024 21:00Few Clouds29°C4 mph, NE21%10000m1011hPa25%